createdAt,value
2018-06-24T00:01:42.189Z,5.60
2018-06-24T00:04:09.308Z,4.67
2018-06-24T00:06:36.621Z,5.20
2018-06-24T00:09:05.607Z,5.13
2018-06-24T00:11:32.749Z,5.40
2018-06-24T00:13:59.936Z,5.17
2018-06-24T00:16:27.068Z,5.10
2018-06-24T00:18:54.204Z,5.17
2018-06-24T00:21:21.360Z,5.40
2018-06-24T00:23:48.493Z,5.20
2018-06-24T00:26:15.647Z,5.00
2018-06-24T00:28:42.793Z,5.67
2018-06-24T00:31:09.942Z,5.57
2018-06-24T00:33:37.071Z,5.33
2018-06-24T00:36:04.284Z,5.97
2018-06-24T00:38:31.400Z,6.20
2018-06-24T00:40:58.538Z,5.70
2018-06-24T00:43:25.671Z,6.30
2018-06-24T00:45:52.800Z,5.50
2018-06-24T00:48:19.950Z,6.33
2018-06-24T00:50:47.079Z,6.27
2018-06-24T00:53:14.224Z,6.00
2018-06-24T00:55:41.355Z,6.10
2018-06-24T00:58:08.629Z,6.30
2018-06-24T01:00:35.768Z,5.70
2018-06-24T01:03:02.916Z,5.63
2018-06-24T01:05:30.035Z,5.10
2018-06-24T01:07:57.181Z,5.23
2018-06-24T01:10:24.331Z,6.07
2018-06-24T01:12:51.496Z,5.80
2018-06-24T01:15:18.644Z,6.27
2018-06-24T01:17:45.775Z,5.60
2018-06-24T01:20:12.996Z,5.70
2018-06-24T01:22:40.136Z,5.90
2018-06-24T01:25:07.328Z,6.13
2018-06-24T01:27:34.442Z,5.83
2018-06-24T01:30:01.576Z,6.40
2018-06-24T01:32:28.724Z,6.40
2018-06-24T01:34:55.880Z,6.13
2018-06-24T01:37:23.025Z,6.00
2018-06-24T01:39:50.180Z,5.57
2018-06-24T01:42:17.387Z,6.43
2018-06-24T01:47:28.442Z,5.60
2018-06-24T01:49:55.590Z,6.40
2018-06-24T01:52:22.693Z,6.20
2018-06-24T01:54:49.788Z,5.70
2018-06-24T01:57:16.891Z,6.03
2018-06-24T01:59:44.009Z,6.50
2018-06-24T02:02:11.121Z,6.13
2018-06-24T02:04:38.224Z,5.70
2018-06-24T02:07:05.311Z,6.20
2018-06-24T02:09:32.397Z,6.50
2018-06-24T02:11:59.546Z,6.80
2018-06-24T02:14:27.067Z,6.00
2018-06-24T02:16:54.152Z,6.73
2018-06-24T02:19:21.261Z,6.50
2018-06-24T02:21:48.345Z,6.10
2018-06-24T02:24:15.453Z,7.10
2018-06-24T02:26:42.574Z,6.63
2018-06-24T02:29:09.664Z,7.03
2018-06-24T02:31:36.753Z,6.33
2018-06-24T02:34:03.855Z,6.80
2018-06-24T02:36:30.988Z,7.00
2018-06-24T02:38:58.095Z,7.60
2018-06-24T02:41:25.209Z,7.33
2018-06-24T02:43:52.309Z,6.80
2018-06-24T02:46:19.425Z,6.77
2018-06-24T02:51:27.686Z,6.80
2018-06-24T02:53:54.778Z,6.37
2018-06-24T02:56:21.870Z,6.73
2018-06-24T02:58:49.021Z,7.00
2018-06-24T03:01:16.129Z,7.20
2018-06-24T03:03:43.218Z,7.37
2018-06-24T03:06:10.310Z,7.50
2018-06-24T03:08:37.429Z,7.53
2018-06-24T03:11:04.558Z,6.37
2018-06-24T03:13:31.635Z,6.50
2018-06-24T03:15:58.737Z,7.30
2018-06-24T03:18:25.821Z,6.60
2018-06-24T03:20:52.940Z,6.33
2018-06-24T03:23:20.033Z,6.57
2018-06-24T03:25:47.226Z,6.60
2018-06-24T03:28:14.354Z,6.70
2018-06-24T03:30:41.500Z,6.67
2018-06-24T03:33:08.565Z,6.20
2018-06-24T03:35:35.653Z,7.00
2018-06-24T03:38:02.756Z,7.23
2018-06-24T03:40:29.852Z,7.70
2018-06-24T03:42:56.953Z,6.87
2018-06-24T03:45:24.064Z,6.80
2018-06-24T03:47:51.226Z,6.30
2018-06-24T03:50:18.365Z,6.73
2018-06-24T03:52:45.577Z,6.57
2018-06-24T03:55:12.671Z,6.80
2018-06-24T03:57:39.765Z,7.50
2018-06-24T04:00:07.418Z,7.40
2018-06-24T04:02:34.513Z,6.90
2018-06-24T04:05:01.737Z,6.93
2018-06-24T04:07:28.840Z,7.40
2018-06-24T04:09:55.980Z,6.50
2018-06-24T04:12:23.069Z,6.60
2018-06-24T04:14:50.219Z,7.10
2018-06-24T04:17:17.291Z,7.03
2018-06-24T04:19:44.393Z,6.97
2018-06-24T04:22:11.485Z,6.73
2018-06-24T04:24:38.589Z,6.87
2018-06-24T04:27:05.686Z,6.97
2018-06-24T04:29:32.814Z,7.70
2018-06-24T04:31:59.933Z,6.60
2018-06-24T04:34:27.089Z,7.70
2018-06-24T04:36:54.217Z,7.10
2018-06-24T04:39:21.305Z,7.07
2018-06-24T04:41:48.417Z,7.43
2018-06-24T04:44:15.508Z,6.83
2018-06-24T04:46:42.585Z,6.40
2018-06-24T04:49:09.725Z,6.80
2018-06-24T04:51:36.834Z,6.80
2018-06-24T04:54:03.916Z,6.67
2018-06-24T04:56:31.045Z,7.00
2018-06-24T04:58:58.181Z,7.50
2018-06-24T05:01:25.388Z,7.07
2018-06-24T05:03:52.500Z,7.50
2018-06-24T05:06:19.624Z,7.73
2018-06-24T05:08:46.693Z,7.40
2018-06-24T05:11:13.849Z,7.17
2018-06-24T05:13:41.297Z,8.00
2018-06-24T05:16:08.449Z,7.53
2018-06-24T05:18:35.572Z,8.20
2018-06-24T05:21:02.713Z,9.97
2018-06-24T05:23:29.829Z,9.50
2018-06-24T05:25:56.945Z,9.03
2018-06-24T05:28:24.032Z,10.03
2018-06-24T05:30:51.263Z,9.40
2018-06-24T05:33:18.433Z,10.17
2018-06-24T05:35:45.526Z,10.47
2018-06-24T05:38:12.649Z,11.10
2018-06-24T05:40:39.770Z,11.30
2018-06-24T05:43:06.917Z,12.00
2018-06-24T05:45:34.051Z,12.10
2018-06-24T05:48:01.202Z,11.57
2018-06-24T05:50:28.308Z,12.50
2018-06-24T05:52:55.414Z,12.80
2018-06-24T05:55:22.529Z,13.50
2018-06-24T05:57:49.629Z,13.70
2018-06-24T06:00:16.878Z,13.43
2018-06-24T06:02:43.953Z,13.63
2018-06-24T06:05:11.067Z,14.73
2018-06-24T06:07:38.176Z,13.80
2018-06-24T06:10:05.375Z,13.87
2018-06-24T06:12:32.530Z,14.53
2018-06-24T06:14:59.621Z,14.80
2018-06-24T06:17:26.733Z,14.20
2018-06-24T06:19:54.004Z,15.80
2018-06-24T06:22:21.209Z,14.40
2018-06-24T06:24:48.416Z,15.03
2018-06-24T06:27:15.512Z,14.33
2018-06-24T06:29:42.617Z,14.43
2018-06-24T06:32:09.809Z,14.00
2018-06-24T06:34:36.967Z,15.03
2018-06-24T06:37:04.108Z,13.77
2018-06-24T06:39:31.205Z,14.53
2018-06-24T06:41:58.325Z,14.07
2018-06-24T06:44:25.454Z,15.00
2018-06-24T06:46:52.544Z,14.93
2018-06-24T06:49:19.637Z,15.10
2018-06-24T06:51:46.738Z,15.43
2018-06-24T06:54:13.851Z,15.30
2018-06-24T06:56:41.027Z,16.37
2018-06-24T06:59:08.169Z,16.20
2018-06-24T07:01:35.274Z,16.70
2018-06-24T07:04:02.371Z,16.13
2018-06-24T07:06:29.485Z,15.40
2018-06-24T07:08:56.585Z,17.53
2018-06-24T07:11:23.997Z,16.73
2018-06-24T07:13:51.105Z,16.80
2018-06-24T07:16:18.204Z,17.30
2018-06-24T07:18:45.365Z,17.10
2018-06-24T07:21:12.519Z,17.20
2018-06-24T07:23:39.673Z,16.70
2018-06-24T07:26:06.781Z,17.40
2018-06-24T07:28:33.878Z,16.50
2018-06-24T07:31:00.989Z,17.80
2018-06-24T07:33:28.208Z,16.33
2018-06-24T07:35:55.205Z,16.30
2018-06-24T07:38:22.305Z,17.47
2018-06-24T07:40:49.410Z,15.57
2018-06-24T07:43:16.561Z,13.77
2018-06-24T07:45:43.697Z,13.40
2018-06-24T07:48:10.853Z,13.10
2018-06-24T07:50:39.564Z,13.57
2018-06-24T07:53:06.920Z,11.20
2018-06-24T07:55:34.005Z,12.30
2018-06-24T07:58:01.153Z,12.37
2018-06-24T08:00:28.262Z,11.23
2018-06-24T08:02:55.385Z,9.50
2018-06-24T08:05:22.517Z,11.30
2018-06-24T08:07:49.822Z,11.37
2018-06-24T08:10:17.009Z,8.50
2018-06-24T08:12:44.105Z,8.20
2018-06-24T08:15:11.290Z,8.90
2018-06-24T08:17:38.424Z,8.50
2018-06-24T08:20:05.537Z,8.97
2018-06-24T08:22:32.648Z,8.20
2018-06-24T08:24:59.770Z,8.23
2018-06-24T08:27:26.856Z,7.17
2018-06-24T08:29:56.461Z,8.60
2018-06-24T08:32:23.637Z,8.57
2018-06-24T08:34:50.968Z,8.70
2018-06-24T08:37:18.289Z,8.37
2018-06-24T08:39:45.502Z,8.10
2018-06-24T08:42:12.596Z,7.50
2018-06-24T08:44:39.685Z,7.97
2018-06-24T08:47:06.798Z,7.33
2018-06-24T08:49:33.933Z,8.33
2018-06-24T08:52:01.040Z,8.83
2018-06-24T08:54:28.317Z,9.00
2018-06-24T08:56:55.474Z,8.13
2018-06-24T08:59:22.733Z,7.90
2018-06-24T09:01:49.849Z,7.40
2018-06-24T09:04:17.022Z,7.60
2018-06-24T09:06:50.753Z,7.30
2018-06-24T09:09:17.992Z,8.07
2018-06-24T09:11:45.146Z,7.10
2018-06-24T09:14:12.302Z,7.50
2018-06-24T09:16:39.403Z,7.87
2018-06-24T09:19:06.544Z,8.10
2018-06-24T09:21:33.665Z,7.60
2018-06-24T09:24:01.838Z,7.83
2018-06-24T09:29:11.341Z,7.63
2018-06-24T09:31:38.529Z,7.83
2018-06-24T09:34:05.628Z,7.57
2018-06-24T09:36:32.737Z,8.30
2018-06-24T09:38:59.857Z,8.50
2018-06-24T09:41:27.073Z,8.33
2018-06-24T09:43:54.258Z,7.93
2018-06-24T09:46:21.385Z,8.10
2018-06-24T09:48:48.554Z,7.73
2018-06-24T09:51:15.767Z,7.83
2018-06-24T09:53:42.956Z,8.40
2018-06-24T09:56:10.057Z,7.60
2018-06-24T09:58:37.171Z,8.47
2018-06-24T10:01:04.360Z,7.47
2018-06-24T10:03:31.457Z,7.90
2018-06-24T10:05:58.558Z,7.60
2018-06-24T10:08:25.689Z,6.93
2018-06-24T10:10:53.008Z,7.07
2018-06-24T10:13:20.854Z,7.77
2018-06-24T10:15:48.046Z,6.90
2018-06-24T10:18:15.249Z,7.07
2018-06-24T10:20:42.490Z,6.50
2018-06-24T10:23:09.584Z,7.03
2018-06-24T10:25:36.684Z,5.93
2018-06-24T10:28:03.928Z,5.50
2018-06-24T10:30:31.072Z,5.70
2018-06-24T10:32:58.169Z,5.33
2018-06-24T10:35:25.284Z,4.57
2018-06-24T10:37:52.380Z,4.80
2018-06-24T10:40:19.620Z,5.33
2018-06-24T10:42:46.689Z,5.50
2018-06-24T10:45:13.811Z,5.87
2018-06-24T10:47:40.924Z,5.93
2018-06-24T10:50:08.125Z,5.93
2018-06-24T10:52:35.277Z,6.10
2018-06-24T10:55:02.381Z,7.00
2018-06-24T10:57:29.469Z,6.40
2018-06-24T10:59:56.601Z,7.27
2018-06-24T11:02:23.785Z,6.50
2018-06-24T11:04:50.885Z,6.53
2018-06-24T11:07:17.982Z,7.23
2018-06-24T11:09:45.197Z,6.53
2018-06-24T11:12:12.273Z,7.20
2018-06-24T11:14:39.380Z,7.17
2018-06-24T11:17:06.464Z,7.87
2018-06-24T11:19:33.589Z,6.20
2018-06-24T11:22:00.717Z,6.53
2018-06-24T11:24:27.949Z,5.90
2018-06-24T11:26:55.029Z,5.37
2018-06-24T11:29:22.125Z,5.13
2018-06-24T11:31:49.232Z,5.87
2018-06-24T11:34:16.385Z,5.07
2018-06-24T11:36:43.510Z,5.43
2018-06-24T11:39:11.077Z,5.50
2018-06-24T11:41:38.363Z,5.10
2018-06-24T11:44:05.817Z,5.73
2018-06-24T11:46:32.976Z,5.73
2018-06-24T11:49:00.121Z,4.77
2018-06-24T11:51:27.205Z,4.73
2018-06-24T11:53:54.313Z,4.97
2018-06-24T11:56:21.423Z,4.07
2018-06-24T11:58:48.564Z,4.00
2018-06-24T12:01:15.725Z,3.80
2018-06-24T12:03:42.933Z,4.27
2018-06-24T12:06:10.025Z,4.47
2018-06-24T12:08:37.129Z,4.10
2018-06-24T12:11:04.273Z,4.00
2018-06-24T12:13:31.456Z,4.23
2018-06-24T12:15:58.580Z,4.73
2018-06-24T12:18:25.689Z,4.40
2018-06-24T12:20:52.983Z,4.90
2018-06-24T12:23:20.177Z,4.80
2018-06-24T12:25:47.268Z,5.60
2018-06-24T12:28:14.466Z,4.70
2018-06-24T12:30:41.577Z,4.97
2018-06-24T12:33:08.686Z,4.37
2018-06-24T12:35:35.782Z,4.50
2018-06-24T12:38:02.884Z,4.07
2018-06-24T12:40:30.950Z,4.00
2018-06-24T12:42:58.270Z,4.30
2018-06-24T12:45:25.422Z,4.17
2018-06-24T12:47:52.498Z,4.07
2018-06-24T12:50:19.609Z,4.20
2018-06-24T12:52:46.789Z,4.27
2018-06-24T12:55:13.884Z,4.47
2018-06-24T12:57:41.005Z,4.13
2018-06-24T13:00:08.441Z,3.97
2018-06-24T13:02:35.308Z,4.07
2018-06-24T13:05:02.473Z,3.83
2018-06-24T13:07:29.609Z,3.77
2018-06-24T13:09:56.706Z,3.50
2018-06-24T13:12:23.797Z,3.77
2018-06-24T13:14:50.900Z,3.30
2018-06-24T13:17:18.018Z,3.53
2018-06-24T13:19:45.114Z,3.07
2018-06-24T13:22:13.072Z,3.17
2018-06-24T13:24:40.173Z,3.10
2018-06-24T13:27:07.301Z,3.13
2018-06-24T13:29:34.520Z,3.47
2018-06-24T13:32:01.797Z,2.83
2018-06-24T13:34:28.950Z,3.40
2018-06-24T13:36:56.037Z,3.00
2018-06-24T13:39:23.146Z,2.83
2018-06-24T13:41:50.337Z,2.90
2018-06-24T13:44:17.510Z,2.87
2018-06-24T13:46:44.717Z,3.07
2018-06-24T13:49:11.914Z,2.80
2018-06-24T13:51:39.041Z,2.87
2018-06-24T13:54:06.253Z,3.00
2018-06-24T13:56:33.446Z,2.80
2018-06-24T13:59:00.609Z,2.60
2018-06-24T14:01:27.721Z,2.50
2018-06-24T14:04:00.185Z,2.37
2018-06-24T14:06:27.326Z,2.60
2018-06-24T14:08:54.483Z,2.67
2018-06-24T14:11:21.607Z,2.90
2018-06-24T14:13:48.768Z,2.80
2018-06-24T14:16:15.963Z,3.20
2018-06-24T14:18:43.189Z,2.90
2018-06-24T14:21:10.436Z,3.27
2018-06-24T14:23:37.625Z,3.27
2018-06-24T14:26:04.822Z,3.03
2018-06-24T14:28:32.096Z,2.93
2018-06-24T14:30:59.214Z,3.20
2018-06-24T14:33:26.425Z,3.20
2018-06-24T14:35:53.569Z,3.40
2018-06-24T14:38:20.718Z,3.13
2018-06-24T14:40:47.893Z,3.60
2018-06-24T14:43:15.026Z,4.33
2018-06-24T14:45:42.197Z,4.40
2018-06-24T14:48:09.381Z,4.10
2018-06-24T14:50:36.547Z,3.70
2018-06-24T14:53:03.749Z,3.77
2018-06-24T14:55:31.008Z,3.80
2018-06-24T14:57:58.165Z,3.63
2018-06-24T15:00:25.273Z,3.80
2018-06-24T15:02:52.441Z,3.30
2018-06-24T15:05:19.629Z,3.60
2018-06-24T15:07:46.725Z,3.97
2018-06-24T15:10:13.816Z,4.07
2018-06-24T15:12:40.982Z,3.83
2018-06-24T15:15:08.229Z,4.50
2018-06-24T15:17:35.460Z,4.27
2018-06-24T15:20:02.645Z,4.20
2018-06-24T15:22:29.821Z,3.90
2018-06-24T15:24:56.907Z,4.20
2018-06-24T15:27:24.053Z,4.13
2018-06-24T15:29:51.493Z,4.23
2018-06-24T15:32:18.693Z,4.90
2018-06-24T15:34:45.891Z,5.57
2018-06-24T15:37:13.023Z,5.37
2018-06-24T15:39:40.237Z,5.00
2018-06-24T15:42:07.507Z,5.97
2018-06-24T15:44:34.757Z,6.23
2018-06-24T15:47:01.926Z,5.97
2018-06-24T15:49:30.316Z,5.90
2018-06-24T15:51:57.429Z,6.60
2018-06-24T15:54:27.787Z,6.17
2018-06-24T15:56:54.884Z,5.97
2018-06-24T15:59:22.022Z,6.40
2018-06-24T16:01:49.173Z,6.67
2018-06-24T16:04:16.354Z,7.03
2018-06-24T16:06:43.749Z,6.43
2018-06-24T16:09:12.215Z,6.83
2018-06-24T16:11:39.358Z,6.17
2018-06-24T16:14:06.591Z,5.97
2018-06-24T16:16:33.960Z,5.87
2018-06-24T16:19:01.232Z,6.27
2018-06-24T16:21:28.334Z,6.80
2018-06-24T16:23:55.549Z,7.07
2018-06-24T16:26:22.753Z,7.50
2018-06-24T16:28:49.949Z,7.60
2018-06-24T16:31:17.077Z,7.50
2018-06-24T16:33:44.287Z,7.40
2018-06-24T16:36:11.497Z,6.93
2018-06-24T16:38:38.693Z,6.30
2018-06-24T16:41:05.917Z,6.60
2018-06-24T16:43:33.174Z,6.63
2018-06-24T16:46:00.276Z,7.40
2018-06-24T16:48:27.400Z,7.37
2018-06-24T16:50:54.509Z,7.13
2018-06-24T16:53:21.639Z,6.43
2018-06-24T16:55:48.830Z,8.00
2018-06-24T16:58:15.983Z,7.90
2018-06-24T17:00:43.038Z,9.37
2018-06-24T17:03:10.160Z,9.03
2018-06-24T17:05:37.339Z,8.77
2018-06-24T17:08:04.593Z,8.90
2018-06-24T17:10:31.873Z,8.87
2018-06-24T17:12:58.979Z,9.60
2018-06-24T17:15:26.093Z,10.10
2018-06-24T17:17:53.289Z,9.30
2018-06-24T17:20:20.433Z,9.77
2018-06-24T17:22:47.513Z,8.50
2018-06-24T17:25:14.621Z,7.80
2018-06-24T17:27:41.798Z,7.13
2018-06-24T17:30:08.920Z,6.97
2018-06-24T17:32:36.025Z,6.03
2018-06-24T17:35:03.153Z,5.83
2018-06-24T17:37:30.272Z,6.10
2018-06-24T17:39:57.401Z,6.07
2018-06-24T17:42:24.528Z,5.93
2018-06-24T17:44:51.676Z,6.37
2018-06-24T17:47:18.776Z,6.20
2018-06-24T17:49:45.876Z,5.93
2018-06-24T17:52:12.981Z,6.33
2018-06-24T17:54:40.157Z,6.20
2018-06-24T17:57:07.413Z,6.63
2018-06-24T17:59:34.549Z,6.33
2018-06-24T18:02:01.658Z,6.37
2018-06-24T18:04:28.753Z,6.10
2018-06-24T18:06:55.889Z,6.97
2018-06-24T18:09:23.025Z,6.33
2018-06-24T18:11:50.239Z,6.10
2018-06-24T18:16:50.936Z,5.40
2018-06-24T18:19:18.041Z,5.20
2018-06-24T18:21:45.320Z,5.60
2018-06-24T18:24:12.408Z,5.40
2018-06-24T18:26:39.553Z,5.60
2018-06-24T18:29:06.677Z,5.20
2018-06-24T18:31:34.146Z,5.70
2018-06-24T18:34:05.518Z,6.37
2018-06-24T18:36:32.686Z,5.80
2018-06-24T19:25:40.299Z,5.93
2018-06-24T19:28:07.433Z,5.80
2018-06-24T19:30:34.573Z,5.80
2018-06-24T19:33:01.706Z,5.73
2018-06-24T19:35:28.817Z,5.83
2018-06-24T19:37:56.089Z,5.93
2018-06-24T19:40:23.198Z,5.57
2018-06-24T19:42:50.402Z,5.87
2018-06-24T19:45:17.533Z,5.33
2018-06-24T19:47:44.702Z,4.90
2018-06-24T19:50:12.170Z,5.00
2018-06-24T19:52:39.514Z,4.50
2018-06-24T19:55:06.589Z,5.13
2018-06-24T19:57:33.877Z,5.00
2018-06-24T20:00:01.216Z,4.73
2018-06-24T20:02:28.429Z,4.83
2018-06-24T20:04:55.556Z,4.67
2018-06-24T20:07:22.972Z,5.13
2018-06-24T20:09:50.164Z,4.90
2018-06-24T20:12:17.332Z,4.63
2018-06-24T20:14:44.461Z,4.83
2018-06-24T20:17:11.601Z,4.53
2018-06-24T20:19:38.781Z,4.73
2018-06-24T20:22:05.601Z,5.37
2018-06-24T20:24:32.724Z,5.10
2018-06-24T20:26:59.834Z,5.10
2018-06-24T20:29:26.956Z,4.93
2018-06-24T20:31:54.079Z,4.83
2018-06-24T20:34:21.202Z,4.67
2018-06-24T20:36:48.330Z,4.50
2018-06-24T20:39:15.451Z,4.30
2018-06-24T20:41:42.560Z,4.97
2018-06-24T20:44:09.662Z,5.13
2018-06-24T20:46:36.902Z,5.30
2018-06-24T20:49:04.001Z,4.90
2018-06-24T20:51:31.117Z,5.07
2018-06-24T20:53:58.229Z,4.70
2018-06-24T20:56:25.333Z,5.00
2018-06-24T20:58:52.564Z,5.67
2018-06-24T21:01:19.709Z,5.03
2018-06-24T21:03:46.865Z,5.60
2018-06-24T21:06:13.932Z,5.03
2018-06-24T21:08:41.261Z,5.13
2018-06-24T21:11:08.366Z,5.60
2018-06-24T21:13:35.601Z,4.90
2018-06-24T21:16:02.713Z,5.43
2018-06-24T21:18:29.825Z,5.30
2018-06-24T21:20:57.084Z,5.87
2018-06-24T21:23:24.205Z,5.93
2018-06-24T21:25:51.434Z,5.17
2018-06-24T21:28:18.533Z,5.50
2018-06-24T21:30:45.642Z,6.10
2018-06-24T21:33:12.965Z,5.73
2018-06-24T21:35:40.077Z,5.40
2018-06-24T21:38:07.223Z,5.77
2018-06-24T21:40:34.418Z,5.30
2018-06-24T21:43:01.534Z,6.23
2018-06-24T21:45:28.649Z,5.70
2018-06-24T21:47:55.793Z,5.83
2018-06-24T21:50:22.929Z,5.30
2018-06-24T21:52:50.049Z,5.27
2018-06-24T21:55:17.190Z,5.90
2018-06-24T21:57:44.253Z,5.80
2018-06-24T22:00:11.380Z,5.03
2018-06-24T22:02:38.817Z,5.50
2018-06-24T22:05:05.913Z,5.60
2018-06-24T22:07:34.125Z,5.10
2018-06-24T22:10:01.245Z,5.13
2018-06-24T22:12:28.367Z,5.60
2018-06-24T22:14:55.464Z,6.00
2018-06-24T22:17:22.665Z,5.73
2018-06-24T22:19:49.788Z,6.17
2018-06-24T22:22:16.886Z,6.37
2018-06-24T22:24:43.990Z,6.03
2018-06-24T22:27:11.089Z,6.60
2018-06-24T22:29:38.232Z,7.43
2018-06-24T22:32:05.341Z,7.40
2018-06-24T22:34:32.488Z,6.73
2018-06-24T22:36:59.627Z,7.10
2018-06-24T22:39:26.748Z,6.60
2018-06-24T22:41:53.823Z,7.03
2018-06-24T22:44:20.922Z,6.50
2018-06-24T22:46:48.040Z,6.00
2018-06-24T22:49:15.133Z,6.43
2018-06-24T22:51:42.237Z,6.63
2018-06-24T22:54:09.373Z,6.30
2018-06-24T22:56:36.509Z,6.57
2018-06-24T22:59:09.348Z,6.30
2018-06-24T23:01:36.455Z,6.40
2018-06-24T23:04:03.701Z,5.70
2018-06-24T23:06:30.849Z,6.17
2018-06-24T23:08:58.472Z,6.00
2018-06-24T23:11:25.549Z,6.13
2018-06-24T23:13:52.685Z,6.57
2018-06-24T23:16:19.781Z,5.17
2018-06-24T23:18:46.890Z,5.40
2018-06-24T23:21:13.980Z,5.47
2018-06-24T23:23:41.206Z,5.37
2018-06-24T23:26:08.337Z,5.57
2018-06-24T23:28:35.481Z,5.60
2018-06-24T23:31:02.613Z,5.80
2018-06-24T23:33:29.712Z,6.33
2018-06-24T23:35:56.845Z,7.07
2018-06-24T23:38:23.941Z,6.67
2018-06-24T23:40:51.045Z,6.80
2018-06-24T23:43:18.143Z,7.70
2018-06-24T23:45:45.257Z,7.00
2018-06-24T23:48:12.365Z,7.83
2018-06-24T23:50:39.488Z,7.57
2018-06-24T23:53:06.603Z,7.10
2018-06-24T23:55:33.705Z,7.90
2018-06-24T23:58:00.805Z,8.53
